Time;durP1;ratioP1;P1;durP2;ratioP2;P2;SDS_P1;SDS_P2;PMS_P1;PMS_P2;Temp;Humidity;BMP_temperature;BMP_pressure;BME280_temperature;BME280_humidity;BME280_pressure;Samples;Min_cycle;Max_cycle;Signal;HPM_P1;HPM_P2
2022/05/01 04:47:31;;;;;;;12.17;6.13;;;13.30;85.40;;;;;;5530048;23;20227;-78
2022/05/01 04:49:59;;;;;;;14.57;7.17;;;13.40;85.40;;;;;;5032209;28;20265;-78
2022/05/01 04:52:30;;;;;;;10.67;6.53;;;13.40;85.30;;;;;;5061901;28;20190;-78
2022/05/01 04:54:58;;;;;;;9.27;5.93;;;13.50;85.40;;;;;;5048181;28;20199;-76
2022/05/01 04:57:26;;;;;;;11.10;6.23;;;13.50;85.20;;;;;;5045274;28;20195;-80
2022/05/01 04:59:55;;;;;;;10.90;6.30;;;13.60;85.40;;;;;;5062777;28;20688;-80
2022/05/01 05:02:23;;;;;;;8.50;5.87;;;13.60;85.50;;;;;;5048663;28;20317;-78
2022/05/01 05:04:53;;;;;;;11.67;6.10;;;13.60;85.70;;;;;;5050607;28;20208;-77
2022/05/01 05:07:21;;;;;;;10.60;5.90;;;13.70;85.60;;;;;;5052164;28;20207;-77
2022/05/01 05:09:54;;;;;;;10.77;6.30;;;13.70;85.80;;;;;;5046654;28;20210;-79
2022/05/01 05:12:23;;;;;;;8.93;4.70;;;13.80;85.80;;;;;;5044448;28;20911;-78
2022/05/01 05:14:55;;;;;;;6.67;4.33;;;13.90;85.70;;;;;;5039969;28;20201;-78
2022/05/01 05:17:24;;;;;;;7.63;4.43;;;14.00;85.40;;;;;;5051365;28;20198;-78
2022/05/01 05:19:53;;;;;;;7.00;3.80;;;14.10;85.20;;;;;;5050557;28;20191;-78
2022/05/01 05:22:22;;;;;;;8.17;4.00;;;14.20;85.00;;;;;;5040830;28;20219;-79
2022/05/01 05:24:50;;;;;;;7.10;3.60;;;14.30;84.70;;;;;;5041152;28;20202;-78
2022/05/01 05:27:21;;;;;;;6.40;3.90;;;14.40;84.30;;;;;;5043306;28;20202;-77
2022/05/01 05:29:49;;;;;;;7.00;3.80;;;14.50;83.80;;;;;;5042208;28;20210;-79
2022/05/01 05:32:18;;;;;;;10.63;3.93;;;14.60;83.70;;;;;;5037683;28;20217;-80
2022/05/01 05:34:46;;;;;;;5.70;3.73;;;14.70;83.40;;;;;;5036534;28;20199;-80
2022/05/01 05:37:16;;;;;;;8.63;3.90;;;14.70;82.70;;;;;;5041528;28;20225;-78
2022/05/01 05:39:45;;;;;;;8.83;4.03;;;14.80;82.30;;;;;;5040415;28;20195;-80
2022/05/01 05:42:14;;;;;;;7.33;3.97;;;14.90;82.20;;;;;;5038284;28;20296;-80
2022/05/01 05:44:43;;;;;;;9.40;3.73;;;14.90;80.90;;;;;;5040441;28;20445;-78
2022/05/01 05:47:12;;;;;;;6.20;3.70;;;15.00;81.00;;;;;;5039395;28;20214;-78
2022/05/01 05:49:40;;;;;;;7.33;3.40;;;15.10;81.10;;;;;;5040989;28;20183;-79
2022/05/01 06:05:09;;;;;;;5.83;3.57;;;15.40;80.50;;;;;;5124617;27;20568;-76
2022/05/01 06:07:38;;;;;;;8.37;3.53;;;16.00;79.20;;;;;;5116767;27;20230;-77
2022/05/01 06:12:59;;;;;;;7.37;3.87;;;16.20;79.00;;;;;;5236814;22;20232;-76
2022/05/01 06:15:27;;;;;;;4.83;3.40;;;16.40;78.80;;;;;;4994455;28;20568;-76
2022/05/01 06:17:55;;;;;;;5.50;3.90;;;16.50;78.50;;;;;;4998661;28;20215;-76
2022/05/01 06:20:26;;;;;;;7.23;3.70;;;16.60;78.40;;;;;;4998031;28;20217;-76
2022/05/01 06:22:54;;;;;;;6.77;3.30;;;16.70;78.20;;;;;;4995608;28;20217;-75
2022/05/01 06:25:23;;;;;;;5.77;3.80;;;16.80;77.50;;;;;;4989314;28;20201;-76
2022/05/01 06:27:51;;;;;;;6.60;4.03;;;16.90;77.50;;;;;;4993762;28;20445;-76
2022/05/01 06:30:20;;;;;;;5.43;3.47;;;17.00;76.60;;;;;;4992949;28;20197;-76
2022/05/01 06:32:50;;;;;;;8.23;3.60;;;17.10;76.30;;;;;;4994222;28;20199;-76
2022/05/01 06:35:18;;;;;;;6.63;3.50;;;17.20;75.50;;;;;;4996118;28;20201;-76
2022/05/01 06:37:48;;;;;;;5.93;3.50;;;17.30;75.00;;;;;;4997281;28;20196;-76
2022/05/01 06:40:16;;;;;;;5.40;3.50;;;17.40;75.10;;;;;;5000236;28;20393;-76
2022/05/01 06:42:49;;;;;;;5.83;3.47;;;17.40;74.80;;;;;;4994147;28;20181;-77
2022/05/01 06:45:17;;;;;;;5.83;3.33;;;17.60;74.50;;;;;;4994316;28;20192;-77
2022/05/01 06:47:46;;;;;;;5.30;3.30;;;17.60;74.20;;;;;;4996364;28;20204;-76
2022/05/01 06:50:14;;;;;;;9.13;3.80;;;17.70;74.20;;;;;;4995964;28;20203;-77
2022/05/01 06:52:43;;;;;;;7.67;4.00;;;17.80;74.10;;;;;;4991040;28;20201;-76
2022/05/01 06:55:14;;;;;;;8.57;3.43;;;17.90;73.80;;;;;;4991409;28;20203;-77
2022/05/01 06:57:42;;;;;;;5.67;3.80;;;17.90;73.50;;;;;;4997664;28;20900;-76
2022/05/01 07:00:12;;;;;;;6.07;3.23;;;18.10;73.70;;;;;;4995877;28;20200;-77
2022/05/01 07:02:46;;;;;;;7.07;3.90;;;18.10;73.60;;;;;;4996462;28;20726;-75
2022/05/01 07:05:15;;;;;;;6.43;3.83;;;18.20;73.60;;;;;;4985036;28;20212;-76
2022/05/01 07:07:43;;;;;;;6.50;3.07;;;18.30;72.70;;;;;;4982581;28;20197;-77
2022/05/01 07:10:13;;;;;;;5.53;3.40;;;18.40;72.80;;;;;;4975577;28;20206;-76
2022/05/01 07:12:42;;;;;;;5.83;3.07;;;18.40;72.20;;;;;;4982512;28;20221;-76
2022/05/01 07:15:11;;;;;;;5.20;3.10;;;18.50;72.30;;;;;;4985386;28;20194;-76
2022/05/01 07:17:39;;;;;;;7.03;3.27;;;18.60;72.30;;;;;;4981286;28;20193;-75
2022/05/01 07:20:10;;;;;;;6.10;3.22;;;18.60;72.30;;;;;;4982976;28;20434;-76
2022/05/01 07:22:45;;;;;;;6.93;3.20;;;18.80;72.30;;;;;;4983714;28;20852;-75
2022/05/01 07:25:15;;;;;;;4.13;2.97;;;18.90;71.90;;;;;;4980366;28;20225;-76
2022/05/01 07:27:43;;;;;;;7.93;3.60;;;18.90;71.40;;;;;;4983055;28;20864;-76
2022/05/01 07:30:12;;;;;;;8.20;3.00;;;18.90;71.30;;;;;;4978288;28;20902;-76
2022/05/01 07:32:40;;;;;;;4.87;2.90;;;19.00;71.30;;;;;;4977284;28;20193;-76
2022/05/01 07:35:10;;;;;;;5.43;3.00;;;19.00;71.10;;;;;;4982899;28;20200;-76
2022/05/01 07:37:38;;;;;;;4.73;2.83;;;19.10;71.10;;;;;;4977727;28;20193;-78
2022/05/01 07:40:08;;;;;;;7.17;2.73;;;19.20;70.50;;;;;;4981964;28;20205;-76
2022/05/01 07:42:38;;;;;;;6.60;3.53;;;19.30;70.50;;;;;;4975248;28;20289;-76
2022/05/01 07:45:08;;;;;;;4.77;2.43;;;19.30;70.30;;;;;;4984117;28;20243;-76
2022/05/01 07:47:37;;;;;;;4.77;2.83;;;19.30;69.60;;;;;;4981687;28;20186;-76
2022/05/01 07:50:08;;;;;;;4.93;3.00;;;19.40;69.50;;;;;;4978821;28;20208;-75
2022/05/01 07:52:37;;;;;;;4.57;2.70;;;19.40;67.20;;;;;;4982861;28;20867;-76
2022/05/01 07:55:06;;;;;;;4.90;3.20;;;19.40;67.60;;;;;;4983221;28;20220;-76
2022/05/01 07:57:34;;;;;;;4.90;2.63;;;19.50;67.50;;;;;;4975446;28;20205;-76
2022/05/01 08:00:06;;;;;;;3.47;2.30;;;19.50;67.10;;;;;;4983304;28;20900;-76
2022/05/01 08:04:27;;;;;;;4.13;2.83;;;19.60;67.40;;;;;;4981137;28;20193;-75
2022/05/01 08:05:23;;;;;;;4.60;2.57;;;19.60;67.50;;;;;;4982290;28;20201;-76
2022/05/01 08:07:52;;;;;;;4.23;2.70;;;19.70;67.40;;;;;;4983173;28;21106;-76
2022/05/01 08:10:21;;;;;;;5.77;2.87;;;19.80;67.20;;;;;;4978932;28;20197;-76
2022/05/01 08:12:50;;;;;;;3.77;2.23;;;19.80;66.10;;;;;;4983195;28;20224;-76
2022/05/01 08:15:20;;;;;;;6.30;3.37;;;19.90;64.70;;;;;;4983131;28;20721;-75
2022/05/01 08:17:49;;;;;;;5.13;3.10;;;19.90;65.20;;;;;;4980349;28;20204;-76
2022/05/01 08:23:12;;;;;;;5.53;2.60;;;20.10;64.30;;;;;;4984118;28;20197;-75
2022/05/01 08:25:41;;;;;;;4.80;2.33;;;20.10;62.90;;;;;;4981630;28;20227;-76
2022/05/01 08:28:09;;;;;;;5.53;2.33;;;20.10;60.90;;;;;;4980387;28;20205;-76
2022/05/01 08:30:40;;;;;;;3.97;2.30;;;20.20;61.20;;;;;;4977171;28;20197;-79
2022/05/01 08:33:09;;;;;;;4.73;2.70;;;20.20;61.40;;;;;;4977549;28;20196;-77
2022/05/01 08:35:37;;;;;;;2.83;2.10;;;20.30;61.00;;;;;;4977070;28;20193;-76
2022/05/01 08:38:08;;;;;;;4.03;1.90;;;20.30;59.20;;;;;;4973710;28;20205;-76
2022/05/01 08:40:37;;;;;;;5.57;2.37;;;20.30;59.10;;;;;;4982817;28;20711;-75
2022/05/01 08:43:06;;;;;;;5.33;1.83;;;20.30;59.50;;;;;;4980040;28;20205;-76
2022/05/01 08:45:49;;;;;;;3.37;1.90;;;20.40;59.50;;;;;;4983401;28;20225;-75
2022/05/01 08:48:26;;;;;;;4.85;2.15;;;20.40;59.10;;;;;;4983247;28;20186;-75
2022/05/01 08:50:56;;;;;;;5.30;2.07;;;20.40;58.90;;;;;;4982605;28;20185;-76
2022/05/01 08:53:25;;;;;;;3.20;2.00;;;20.50;59.10;;;;;;4980875;28;20197;-75
2022/05/01 08:55:53;;;;;;;5.20;2.37;;;20.60;59.00;;;;;;4974911;28;20588;-76
2022/05/01 08:58:22;;;;;;;5.63;2.07;;;20.60;58.70;;;;;;4982042;28;20189;-75
2022/05/01 09:00:53;;;;;;;3.53;1.83;;;20.60;59.00;;;;;;4978311;28;20207;-75
2022/05/01 09:03:22;;;;;;;5.88;2.08;;;20.60;58.40;;;;;;4971103;28;20612;-77
2022/05/01 09:05:51;;;;;;;7.77;2.23;;;20.70;58.40;;;;;;4974445;28;20256;-75
2022/05/01 09:08:22;;;;;;;4.40;2.23;;;20.70;58.40;;;;;;4974268;28;20204;-75
2022/05/01 09:10:50;;;;;;;5.20;2.03;;;20.70;58.20;;;;;;4976674;28;20189;-76
2022/05/01 09:13:23;;;;;;;4.80;2.13;;;20.80;58.00;;;;;;4983350;28;20244;-76
2022/05/01 09:15:54;;;;;;;3.17;2.10;;;20.80;57.70;;;;;;4983114;28;20189;-75
2022/05/01 09:18:22;;;;;;;4.77;1.93;;;20.90;58.20;;;;;;4976054;28;20212;-77
2022/05/01 09:21:04;;;;;;;3.70;2.17;;;20.90;58.00;;;;;;4982038;28;20332;-76
2022/05/01 09:23:39;;;;;;;5.68;1.88;;;20.90;57.50;;;;;;4981874;28;20575;-76
2022/05/01 09:26:09;;;;;;;3.92;2.13;;;21.10;57.70;;;;;;4981692;28;20239;-74
2022/05/01 09:28:38;;;;;;;3.88;2.28;;;21.10;57.10;;;;;;4982520;28;20204;-76
2022/05/01 09:31:08;;;;;;;5.45;2.35;;;21.20;56.80;;;;;;4982308;28;20192;-75
2022/05/01 09:33:36;;;;;;;3.88;2.33;;;21.20;56.80;;;;;;4982438;28;20279;-76
2022/05/01 09:36:05;;;;;;;5.20;2.40;;;21.30;56.80;;;;;;4981374;28;20194;-78
2022/05/01 09:38:33;;;;;;;4.25;2.38;;;21.30;57.20;;;;;;4981407;28;20721;-78
2022/05/01 09:41:13;;;;;;;3.40;1.95;;;21.30;56.20;;;;;;4979155;28;20197;-77
2022/05/01 09:43:42;;;;;;;3.58;1.80;;;21.30;55.90;;;;;;4981218;28;20197;-77
2022/05/01 09:46:14;;;;;;;3.60;2.10;;;21.30;55.90;;;;;;4979610;28;20205;-77
2022/05/01 09:48:44;;;;;;;5.32;2.58;;;21.30;55.30;;;;;;4981010;28;20292;-76
2022/05/01 09:51:17;;;;;;;5.93;2.03;;;21.30;55.70;;;;;;4982207;28;20197;-76
2022/05/01 09:53:46;;;;;;;3.10;2.10;;;21.40;55.20;;;;;;4975100;28;20201;-77
2022/05/01 09:56:15;;;;;;;6.38;2.00;;;21.40;55.30;;;;;;4982463;28;20208;-77
2022/05/01 09:58:43;;;;;;;7.30;3.88;;;21.40;55.00;;;;;;4980198;28;20196;-77
2022/05/01 10:01:14;;;;;;;6.47;2.95;;;21.40;55.20;;;;;;4979461;28;20215;-75
2022/05/01 10:03:46;;;;;;;4.28;2.13;;;21.40;55.60;;;;;;4975514;28;20887;-79
2022/05/01 10:06:16;;;;;;;6.18;1.80;;;21.30;55.60;;;;;;4982292;28;20312;-78
2022/05/01 10:08:46;;;;;;;5.72;2.83;;;21.30;55.30;;;;;;4973504;28;20812;-76
2022/05/01 10:11:17;;;;;;;6.57;2.92;;;21.40;54.10;;;;;;4972968;28;20209;-76
2022/05/01 10:13:47;;;;;;;35.78;16.52;;;21.50;52.40;;;;;;4980787;28;20622;-77
2022/05/01 10:16:16;;;;;;;7.82;4.38;;;21.50;53.40;;;;;;4972531;28;20198;-75
2022/05/01 10:18:49;;;;;;;104.57;56.53;;;21.60;53.70;;;;;;4965663;28;20185;-77
2022/05/01 10:21:38;;;;;;;53.40;29.48;;;21.60;52.10;;;;;;4967351;28;20202;-80
2022/05/01 10:24:08;;;;;;;9.13;5.32;;;21.70;52.40;;;;;;4967943;28;20202;-76
2022/05/01 10:26:40;;;;;;;6.22;3.72;;;21.70;52.90;;;;;;4978147;28;20287;-76
2022/05/01 10:29:37;;;;;;;21.27;11.13;;;21.60;53.40;;;;;;4976283;28;20185;-76
2022/05/01 10:32:33;;;;;;;8.55;4.57;;;21.70;53.50;;;;;;4973680;28;20202;-77
2022/05/01 10:35:45;;;;;;;7.95;4.13;;;21.60;53.80;;;;;;4977946;28;20189;-76
2022/05/01 10:38:21;;;;;;;4.18;2.50;;;21.60;53.90;;;;;;4979229;28;20193;-77
2022/05/01 10:40:52;;;;;;;7.30;2.55;;;21.60;54.00;;;;;;4981295;28;20243;-76
2022/05/01 10:43:39;;;;;;;6.97;3.53;;;21.70;54.20;;;;;;4980656;28;20197;-76
2022/05/01 10:46:28;;;;;;;11.15;5.65;;;21.70;54.20;;;;;;4978739;28;20752;-75
2022/05/01 10:49:01;;;;;;;7.68;2.75;;;21.80;54.30;;;;;;4977873;28;20197;-78
2022/05/01 10:51:49;;;;;;;2.92;1.92;;;21.90;54.10;;;;;;4981462;28;20685;-77
2022/05/01 10:54:39;;;;;;;4.63;2.10;;;22.00;53.20;;;;;;4983331;28;20228;-78
2022/05/01 10:57:13;;;;;;;5.35;2.10;;;22.20;53.10;;;;;;4978359;28;20279;-77
2022/05/01 10:59:46;;;;;;;4.80;2.35;;;22.30;52.80;;;;;;4983682;28;20247;-77
2022/05/01 11:02:30;;;;;;;4.95;2.53;;;22.40;53.50;;;;;;4982904;28;20647;-76
2022/05/01 11:05:01;;;;;;;5.05;2.53;;;22.40;52.10;;;;;;4978194;28;20635;-77
2022/05/01 11:07:34;;;;;;;5.40;2.53;;;22.30;51.20;;;;;;4982373;28;20197;-77
2022/05/01 11:10:06;;;;;;;6.63;2.70;;;22.30;51.30;;;;;;4982429;28;20193;-78
2022/05/01 11:12:36;;;;;;;6.80;3.15;;;22.40;52.00;;;;;;4980266;28;20237;-78
2022/05/01 11:15:06;;;;;;;5.10;2.85;;;22.40;51.90;;;;;;4977856;28;20189;-77
2022/05/01 11:17:53;;;;;;;6.32;2.92;;;22.40;52.10;;;;;;4985809;28;20193;-77
2022/05/01 11:20:43;;;;;;;6.82;4.25;;;22.50;52.20;;;;;;4986176;28;20196;-79
2022/05/01 11:23:33;;;;;;;8.45;5.20;;;22.50;51.90;;;;;;4981220;28;20196;-78
2022/05/01 11:26:13;;;;;;;5.15;2.50;;;22.50;52.20;;;;;;4982912;28;20239;-79
2022/05/01 11:28:53;;;;;;;5.68;2.38;;;22.50;51.90;;;;;;4982603;28;20193;-79
2022/05/01 11:31:45;;;;;;;4.28;2.85;;;22.50;51.50;;;;;;4986175;28;20793;-78
2022/05/01 11:34:37;;;;;;;4.97;2.53;;;22.60;51.70;;;;;;4972171;28;20189;-77
2022/05/01 11:37:08;;;;;;;3.60;2.13;;;22.70;51.20;;;;;;4982258;28;20193;-76
2022/05/01 11:40:22;;;;;;;6.63;3.10;;;22.70;51.40;;;;;;4983935;28;20193;-81
2022/05/01 11:42:52;;;;;;;3.65;2.28;;;22.70;51.10;;;;;;4971090;28;20659;-79
2022/05/01 11:45:23;;;;;;;5.53;2.35;;;22.70;51.50;;;;;;4981909;28;20208;-78
2022/05/01 11:47:52;;;;;;;3.38;2.08;;;22.70;51.10;;;;;;4986186;28;20193;-79
2022/05/01 11:50:24;;;;;;;4.40;2.55;;;22.70;50.30;;;;;;4985288;28;20307;-81
2022/05/01 11:52:57;;;;;;;6.47;3.05;;;22.80;50.80;;;;;;4983664;28;20193;-78
2022/05/01 12:02:24;;;;;;;12.88;9.02;;;22.90;50.40;;;;;;4976690;28;20737;-78
2022/05/01 12:03:54;;;;;;;4.47;2.30;;;23.00;50.00;;;;;;4980277;28;20252;-79
2022/05/01 12:06:26;;;;;;;8.55;4.45;;;22.90;49.30;;;;;;4982596;28;20707;-78
2022/05/01 12:08:56;;;;;;;8.18;5.40;;;22.90;49.70;;;;;;4979881;28;20200;-79
2022/05/01 12:11:33;;;;;;;11.75;5.63;;;22.90;50.00;;;;;;4984152;28;20189;-79
2022/05/01 12:14:09;;;;;;;12.52;5.15;;;22.90;50.10;;;;;;4983391;28;20204;-81
2022/05/01 12:16:37;;;;;;;7.43;3.63;;;22.80;50.30;;;;;;4982315;28;20272;-79
2022/05/01 12:19:06;;;;;;;6.35;3.35;;;22.80;49.90;;;;;;4985219;28;20266;-80
2022/05/01 12:21:35;;;;;;;6.78;3.67;;;22.80;49.90;;;;;;4984239;28;20655;-78
2022/05/01 12:24:11;;;;;;;6.82;2.55;;;22.90;49.30;;;;;;4981563;28;20193;-80
2022/05/01 12:26:49;;;;;;;5.88;2.22;;;23.00;49.50;;;;;;4982389;28;20229;-80
2022/05/01 12:29:17;;;;;;;4.43;2.63;;;23.00;50.40;;;;;;4983187;28;20193;-79
2022/05/01 12:32:06;;;;;;;7.03;2.58;;;23.10;50.20;;;;;;4981259;28;20302;-79
2022/05/01 12:34:38;;;;;;;5.63;2.55;;;23.20;50.50;;;;;;4969995;28;20548;-82
2022/05/01 12:37:12;;;;;;;5.25;2.42;;;23.20;50.20;;;;;;4967066;28;20190;-80
2022/05/01 12:39:42;;;;;;;4.13;2.20;;;23.30;50.30;;;;;;4984554;28;20570;-78
2022/05/01 12:45:05;;;;;;;5.00;2.05;;;23.40;48.90;;;;;;4966960;28;20236;-79
2022/05/01 12:47:35;;;;;;;3.92;2.25;;;23.40;49.20;;;;;;4984692;28;20217;-77
2022/05/01 12:50:04;;;;;;;7.03;2.72;;;23.40;49.20;;;;;;4985098;28;20193;-77
2022/05/01 12:52:32;;;;;;;3.83;2.30;;;23.40;49.80;;;;;;4975636;28;20202;-78
2022/05/01 12:55:17;;;;;;;12.45;5.20;;;23.40;49.20;;;;;;4978885;28;20208;-80
2022/05/01 12:57:52;;;;;;;5.28;2.20;;;23.40;49.20;;;;;;4984285;28;20201;-80
2022/05/01 13:00:35;;;;;;;5.80;2.15;;;23.50;49.50;;;;;;4981974;28;20682;-80
2022/05/01 13:03:23;;;;;;;6.25;2.80;;;23.60;49.40;;;;;;4980379;28;20193;-80
2022/05/01 13:06:03;;;;;;;4.88;2.83;;;23.60;49.70;;;;;;4985043;28;20193;-82
2022/05/01 13:08:33;;;;;;;6.03;2.38;;;23.60;49.60;;;;;;4984394;28;21068;-79
2022/05/01 13:11:32;;;;;;;5.60;2.20;;;23.70;49.80;;;;;;4984588;28;20667;-80
2022/05/01 13:14:05;;;;;;;11.30;5.95;;;23.70;49.90;;;;;;4983844;28;20223;-79
2022/05/01 13:16:44;;;;;;;3.17;2.28;;;23.80;49.80;;;;;;4982219;28;20205;-81
2022/05/01 13:19:14;;;;;;;14.40;6.95;;;23.90;49.70;;;;;;4983950;28;20595;-81
2022/05/01 13:21:44;;;;;;;64.70;27.70;;;24.00;49.40;;;;;;4985801;28;20902;-77
2022/05/01 13:24:15;;;;;;;13.90;6.32;;;24.00;48.30;;;;;;4983565;28;20193;-81
2022/05/01 13:26:45;;;;;;;19.80;9.02;;;24.00;46.80;;;;;;4982004;28;20220;-79
2022/05/01 13:29:14;;;;;;;8.45;3.20;;;24.10;47.20;;;;;;4981626;28;20240;-80
2022/05/01 13:31:47;;;;;;;2.88;1.73;;;24.20;46.90;;;;;;4982955;28;20200;-81
2022/05/01 13:34:16;;;;;;;3.83;2.22;;;24.20;45.20;;;;;;4982537;28;20208;-79
2022/05/01 13:36:44;;;;;;;3.05;1.83;;;24.30;45.30;;;;;;4980452;28;20195;-79
2022/05/01 13:39:12;;;;;;;8.02;4.20;;;24.40;45.60;;;;;;4981983;28;20193;-79
2022/05/01 13:44:48;;;;;;;6.30;2.10;;;24.30;44.90;;;;;;4981882;28;20189;-79
2022/05/01 13:47:17;;;;;;;5.65;2.10;;;24.20;45.60;;;;;;4981578;28;20209;-81
2022/05/01 13:49:46;;;;;;;5.57;2.50;;;24.20;46.00;;;;;;4980661;28;20228;-78
2022/05/01 13:52:15;;;;;;;7.25;2.30;;;24.20;46.50;;;;;;4978650;28;20862;-81
2022/05/01 13:54:46;;;;;;;4.90;1.85;;;24.10;46.80;;;;;;4980112;28;20836;-80
2022/05/01 13:57:15;;;;;;;8.88;3.70;;;24.10;47.00;;;;;;4976742;28;20185;-80
2022/05/01 13:59:46;;;;;;;5.00;2.40;;;24.10;46.00;;;;;;4980890;28;20192;-82
2022/05/01 14:02:15;;;;;;;3.38;1.70;;;24.10;46.00;;;;;;4980469;28;20284;-78
2022/05/01 14:04:46;;;;;;;6.20;2.88;;;24.20;46.60;;;;;;4975021;28;20189;-80
2022/05/01 14:07:17;;;;;;;8.35;2.65;;;24.20;45.70;;;;;;4976666;28;20701;-81
2022/05/01 14:09:46;;;;;;;6.57;2.25;;;24.30;46.10;;;;;;4980255;28;20197;-81
2022/05/01 14:12:15;;;;;;;3.80;1.55;;;24.30;46.20;;;;;;4982445;28;20244;-82
2022/05/01 14:14:47;;;;;;;6.32;1.80;;;24.60;45.90;;;;;;4984935;28;20181;-83
2022/05/01 14:17:15;;;;;;;4.15;1.80;;;24.60;45.80;;;;;;4984672;28;20188;-85
2022/05/01 14:19:44;;;;;;;2.15;1.40;;;24.50;45.80;;;;;;4986804;28;20189;-82
2022/05/01 14:22:14;;;;;;;2.97;1.83;;;24.50;45.60;;;;;;4988643;28;20204;-82
2022/05/01 14:24:50;;;;;;;2.80;1.52;;;24.50;45.60;;;;;;4982799;28;20822;-79
2022/05/01 14:27:19;;;;;;;2.75;1.67;;;24.50;45.50;;;;;;4988297;28;20217;-80
2022/05/01 14:29:50;;;;;;;15.93;8.00;;;24.70;44.70;;;;;;4985592;28;20205;-81
2022/05/01 14:32:23;;;;;;;5.20;2.03;;;24.90;44.50;;;;;;4987031;28;20197;-79
2022/05/01 14:34:57;;;;;;;4.13;2.30;;;25.10;44.60;;;;;;4984159;28;20227;-81
2022/05/01 14:37:36;;;;;;;13.63;5.30;;;26.10;44.10;;;;;;4981761;28;20192;-83
2022/05/01 14:40:07;;;;;;;6.60;2.80;;;26.70;43.30;;;;;;4980599;28;20196;-79
2022/05/01 14:42:39;;;;;;;4.30;2.25;;;26.70;42.70;;;;;;4985680;28;20200;-82
2022/05/01 14:45:14;;;;;;;2.97;1.67;;;26.50;43.20;;;;;;4978971;28;20189;-81
2022/05/01 14:47:47;;;;;;;3.92;2.20;;;26.30;42.90;;;;;;4983294;28;20244;-80
2022/05/01 14:50:17;;;;;;;5.65;2.80;;;25.90;42.70;;;;;;4984203;28;20185;-82
2022/05/01 14:52:52;;;;;;;7.15;2.90;;;25.60;43.10;;;;;;4986935;28;20200;-80
2022/05/01 14:55:23;;;;;;;10.52;4.20;;;25.40;43.50;;;;;;4982372;28;20195;-82
2022/05/01 14:57:53;;;;;;;4.85;2.72;;;25.10;43.70;;;;;;4982507;28;20202;-79
2022/05/01 15:08:43;;;;;;;6.85;2.60;;;24.30;44.70;;;;;;4978112;28;20208;-82
2022/05/01 15:11:12;;;;;;;4.68;2.47;;;24.10;45.00;;;;;;4986306;28;20844;-82
2022/05/01 15:13:42;;;;;;;4.60;2.47;;;24.00;45.10;;;;;;4987474;28;20595;-80
2022/05/01 15:16:15;;;;;;;4.68;2.72;;;23.80;45.50;;;;;;4981698;28;20208;-83
2022/05/01 15:18:51;;;;;;;4.80;2.50;;;23.70;45.60;;;;;;4985612;28;20197;-83
2022/05/01 15:24:32;;;;;;;9.55;2.85;;;23.50;45.90;;;;;;4968172;28;20189;-82
2022/05/01 15:27:06;;;;;;;3.80;2.25;;;23.40;46.20;;;;;;4983603;28;20705;-82
2022/05/01 15:29:44;;;;;;;4.30;2.38;;;23.30;46.40;;;;;;4980364;28;20192;-83
2022/05/01 15:32:20;;;;;;;6.75;3.42;;;23.20;46.50;;;;;;4985846;28;20200;-82
2022/05/01 15:34:54;;;;;;;5.18;2.78;;;23.10;46.60;;;;;;4979798;28;20226;-82
2022/05/01 15:37:25;;;;;;;5.72;2.55;;;23.00;46.70;;;;;;4980964;28;20200;-82
2022/05/01 15:39:58;;;;;;;6.78;3.00;;;23.00;47.10;;;;;;4986664;28;20193;-82
2022/05/01 15:42:31;;;;;;;5.63;3.30;;;22.90;46.90;;;;;;4984982;28;20181;-83
2022/05/01 15:45:03;;;;;;;8.02;3.40;;;22.80;46.90;;;;;;4980547;28;20564;-83
2022/05/01 15:47:33;;;;;;;8.15;2.75;;;22.80;47.00;;;;;;4975051;28;20194;-80
2022/05/01 15:55:38;;;;;;;4.97;2.60;;;22.60;47.50;;;;;;4978411;28;20197;-82
2022/05/01 15:58:08;;;;;;;10.27;3.17;;;22.60;47.80;;;;;;4986345;28;20204;-81
2022/05/01 16:00:37;;;;;;;6.75;2.92;;;22.50;47.80;;;;;;4977922;28;20197;-81
2022/05/01 16:03:08;;;;;;;4.25;2.13;;;22.50;47.90;;;;;;4982148;28;20267;-82
2022/05/01 16:05:36;;;;;;;3.10;1.90;;;22.40;47.80;;;;;;4977228;28;20206;-80
2022/05/01 16:08:19;;;;;;;7.70;2.60;;;22.40;47.90;;;;;;4982063;28;20233;-81
2022/05/01 16:11:02;;;;;;;5.63;3.50;;;22.30;47.90;;;;;;4973633;28;20193;-81
2022/05/01 16:13:41;;;;;;;6.80;3.85;;;22.30;48.20;;;;;;4974210;28;20255;-81
2022/05/01 16:16:16;;;;;;;12.00;5.00;;;22.20;48.10;;;;;;4980086;28;20189;-82
2022/05/01 16:19:22;;;;;;;12.23;4.00;;;22.20;48.30;;;;;;4979242;28;20189;-82
2022/05/01 16:22:02;;;;;;;5.63;3.85;;;22.10;48.50;;;;;;4979804;28;20263;-82
2022/05/01 16:24:39;;;;;;;7.68;4.20;;;22.10;48.50;;;;;;4984031;28;20193;-81
2022/05/01 16:27:13;;;;;;;7.75;4.13;;;22.10;48.60;;;;;;4984182;28;20276;-81
2022/05/01 16:29:53;;;;;;;12.25;5.28;;;22.00;48.60;;;;;;4981533;28;20856;-81
2022/05/01 16:32:36;;;;;;;6.72;4.18;;;22.00;48.80;;;;;;4978289;28;20193;-82
2022/05/01 16:35:09;;;;;;;7.07;3.90;;;21.90;48.60;;;;;;4982916;28;20212;-83
2022/05/01 16:37:42;;;;;;;8.55;3.22;;;21.90;48.50;;;;;;4983020;28;20673;-83
2022/05/01 16:40:12;;;;;;;4.75;2.50;;;21.80;48.50;;;;;;4985125;28;20244;-82
2022/05/01 16:42:41;;;;;;;6.95;3.83;;;21.80;48.40;;;;;;4981981;28;20201;-82
2022/05/01 16:45:12;;;;;;;8.23;3.13;;;21.70;48.50;;;;;;4979677;28;20646;-81
2022/05/01 16:47:41;;;;;;;6.95;2.40;;;21.70;48.40;;;;;;4983513;28;20204;-81
2022/05/01 16:50:11;;;;;;;9.00;3.47;;;21.70;48.30;;;;;;4985020;28;20217;-81
2022/05/01 16:52:43;;;;;;;5.03;2.60;;;21.60;48.30;;;;;;4981280;28;20190;-82
2022/05/01 16:55:14;;;;;;;6.30;2.72;;;21.50;48.60;;;;;;4984217;28;20552;-83
2022/05/01 16:57:44;;;;;;;5.47;2.60;;;21.50;48.70;;;;;;4984669;28;20194;-81
2022/05/01 17:00:14;;;;;;;4.93;2.30;;;21.40;48.80;;;;;;4986959;28;20808;-81
2022/05/01 17:02:59;;;;;;;6.00;2.30;;;21.30;48.90;;;;;;4982791;28;20189;-82
2022/05/01 17:05:42;;;;;;;7.37;2.30;;;21.30;49.00;;;;;;4983091;28;20217;-81
2022/05/01 17:08:33;;;;;;;6.75;2.08;;;21.20;49.40;;;;;;4981713;28;20192;-81
2022/05/01 17:11:17;;;;;;;6.40;2.23;;;21.20;49.50;;;;;;4978358;28;20196;-81
2022/05/01 17:14:00;;;;;;;5.53;1.97;;;21.10;49.50;;;;;;4981765;28;20899;-79
2022/05/01 17:16:34;;;;;;;3.07;1.67;;;21.00;49.60;;;;;;4973309;28;20189;-81
2022/05/01 17:19:10;;;;;;;4.10;1.90;;;21.00;49.80;;;;;;4976302;28;20196;-81
2022/05/01 17:21:48;;;;;;;3.30;1.87;;;20.90;49.90;;;;;;4984644;28;20193;-80
2022/05/01 17:24:22;;;;;;;7.93;2.40;;;20.90;50.00;;;;;;4979387;28;20705;-80
2022/05/01 17:26:51;;;;;;;7.33;1.80;;;20.80;50.20;;;;;;4981421;28;20539;-81
2022/05/01 17:29:25;;;;;;;3.07;1.80;;;20.80;50.40;;;;;;4983934;28;20216;-80
2022/05/01 17:31:58;;;;;;;7.23;2.03;;;20.70;50.50;;;;;;4980381;28;20200;-82
2022/05/01 17:34:26;;;;;;;4.27;2.70;;;20.70;50.60;;;;;;4978248;28;20207;-81
2022/05/01 17:36:58;;;;;;;5.77;2.37;;;20.60;50.80;;;;;;4973962;28;20201;-77
2022/05/01 17:39:31;;;;;;;8.97;2.90;;;20.60;50.80;;;;;;4977876;28;20213;-81
2022/05/01 17:42:04;;;;;;;4.07;2.07;;;20.50;50.80;;;;;;4981047;28;20224;-80
2022/05/01 17:44:35;;;;;;;5.23;2.50;;;20.50;51.00;;;;;;4976677;28;20193;-81
2022/05/01 17:47:05;;;;;;;3.73;2.03;;;20.40;51.20;;;;;;4984233;28;20193;-81
2022/05/01 17:49:37;;;;;;;5.40;2.20;;;20.30;51.20;;;;;;4980120;28;20217;-79
2022/05/01 17:52:08;;;;;;;3.77;2.23;;;20.30;51.30;;;;;;4979534;28;20958;-80
2022/05/01 17:54:40;;;;;;;3.50;2.00;;;20.20;51.30;;;;;;4982078;28;20634;-80
2022/05/01 17:57:08;;;;;;;2.93;2.00;;;20.20;51.40;;;;;;4983094;28;20204;-80
2022/05/01 17:59:36;;;;;;;4.90;2.23;;;20.20;51.40;;;;;;4981848;28;20848;-82
2022/05/01 18:02:42;;;;;;;5.17;2.10;;;20.10;51.40;;;;;;4980395;28;20193;-81
2022/05/01 18:11:02;;;;;;;7.23;2.90;;;19.90;51.50;;;;;;4978450;28;20193;-79
2022/05/01 18:13:43;;;;;;;7.20;2.80;;;19.90;51.60;;;;;;4995873;28;20224;-80
2022/05/01 18:16:20;;;;;;;10.10;3.40;;;19.80;51.60;;;;;;5000771;28;20212;-80
2022/05/01 18:19:03;;;;;;;5.50;2.70;;;19.80;51.70;;;;;;4999122;28;20269;-80
2022/05/01 18:21:56;;;;;;;5.30;2.83;;;19.80;51.80;;;;;;4994097;28;20710;-80
2022/05/01 18:24:32;;;;;;;5.83;3.00;;;19.70;51.80;;;;;;5002995;28;20188;-79
2022/05/01 18:27:03;;;;;;;9.13;3.03;;;19.70;51.90;;;;;;4998829;28;20195;-80
2022/05/01 18:32:49;;;;;;;6.97;3.13;;;19.60;52.10;;;;;;5003111;28;20921;-81
2022/05/01 18:35:21;;;;;;;8.63;3.20;;;19.50;52.30;;;;;;5000952;28;20673;-79
2022/05/01 18:37:57;;;;;;;8.43;3.43;;;19.50;52.40;;;;;;5001906;28;20192;-80
2022/05/01 18:40:27;;;;;;;4.90;2.77;;;19.40;52.50;;;;;;5000851;28;20224;-80
2022/05/01 18:42:58;;;;;;;9.03;3.20;;;19.40;52.50;;;;;;5003556;28;20193;-79
2022/05/01 18:45:28;;;;;;;5.67;3.20;;;19.30;52.60;;;;;;5002755;28;20690;-79
2022/05/01 18:47:57;;;;;;;6.77;3.60;;;19.30;52.70;;;;;;4999545;28;20199;-79
2022/05/01 18:50:25;;;;;;;6.03;3.10;;;19.30;52.70;;;;;;5003621;28;20772;-80
2022/05/01 18:52:57;;;;;;;5.97;3.00;;;19.20;52.90;;;;;;4998535;28;20201;-81
2022/05/01 18:55:31;;;;;;;6.07;2.70;;;19.20;53.00;;;;;;5001142;28;20192;-79
2022/05/01 18:58:00;;;;;;;4.80;2.27;;;19.10;53.00;;;;;;5001272;28;20235;-79